sensor_id;sensor_type;location;lat;lon;timestamp;temperature;humidity
70867;HTU21D;58487;53.474;49.470;2023-02-01T00:00:22;-6.27;113.95
70867;HTU21D;58487;53.474;49.470;2023-02-01T00:02:48;-6.39;108.85
70867;HTU21D;58487;53.474;49.470;2023-02-01T00:05:15;-6.45;100.16
70867;HTU21D;58487;53.474;49.470;2023-02-01T00:07:41;-6.47;103.88
70867;HTU21D;58487;53.474;49.470;2023-02-01T00:10:08;-6.56;107.15
70867;HTU21D;58487;53.474;49.470;2023-02-01T00:12:34;-6.59;111.29
70867;HTU21D;58487;53.474;49.470;2023-02-01T00:15:00;-6.56;117.08
70867;HTU21D;58487;53.474;49.470;2023-02-01T00:17:27;-6.56;112.74
70867;HTU21D;58487;53.474;49.470;2023-02-01T00:19:53;-6.56;118.44
70867;HTU21D;58487;53.474;49.470;2023-02-01T00:22:19;-6.56;118.99
70867;HTU21D;58487;53.474;49.470;2023-02-01T00:24:45;-6.55;118.99
70867;HTU21D;58487;53.474;49.470;2023-02-01T00:27:11;-6.52;118.99
70867;HTU21D;58487;53.474;49.470;2023-02-01T00:29:44;-6.63;118.99
70867;HTU21D;58487;53.474;49.470;2023-02-01T00:32:11;-6.55;118.99
70867;HTU21D;58487;53.474;49.470;2023-02-01T00:34:37;-6.39;118.99
70867;HTU21D;58487;53.474;49.470;2023-02-01T00:37:03;-6.42;118.99
70867;HTU21D;58487;53.474;49.470;2023-02-01T00:39:30;-6.29;118.99
70867;HTU21D;58487;53.474;49.470;2023-02-01T00:41:56;-6.30;116.82
70867;HTU21D;58487;53.474;49.470;2023-02-01T00:44:22;-6.33;118.99
70867;HTU21D;58487;53.474;49.470;2023-02-01T00:46:49;-6.24;118.99
70867;HTU21D;58487;53.474;49.470;2023-02-01T00:49:15;-6.23;118.99
70867;HTU21D;58487;53.474;49.470;2023-02-01T00:51:41;-6.23;118.67
70867;HTU21D;58487;53.474;49.470;2023-02-01T00:54:07;-6.22;116.94
70867;HTU21D;58487;53.474;49.470;2023-02-01T00:56:33;-6.28;118.99
70867;HTU21D;58487;53.474;49.470;2023-02-01T00:59:00;-6.28;118.99
70867;HTU21D;58487;53.474;49.470;2023-02-01T01:01:27;-6.22;118.47
70867;HTU21D;58487;53.474;49.470;2023-02-01T01:03:55;-6.27;118.99
70867;HTU21D;58487;53.474;49.470;2023-02-01T01:06:25;-6.27;101.61
70867;HTU21D;58487;53.474;49.470;2023-02-01T01:08:53;-6.28;118.77
70867;HTU21D;58487;53.474;49.470;2023-02-01T01:11:25;-6.18;113.35
70867;HTU21D;58487;53.474;49.470;2023-02-01T01:13:54;-6.22;114.13
70867;HTU21D;58487;53.474;49.470;2023-02-01T01:16:22;-6.33;118.02
70867;HTU21D;58487;53.474;49.470;2023-02-01T01:18:50;-6.35;118.99
70867;HTU21D;58487;53.474;49.470;2023-02-01T01:21:16;-6.35;118.98
70867;HTU21D;58487;53.474;49.470;2023-02-01T01:23:43;-6.41;118.99
70867;HTU21D;58487;53.474;49.470;2023-02-01T01:26:14;-6.43;118.99
70867;HTU21D;58487;53.474;49.470;2023-02-01T01:28:40;-6.45;118.99
70867;HTU21D;58487;53.474;49.470;2023-02-01T01:31:11;-6.52;118.99
70867;HTU21D;58487;53.474;49.470;2023-02-01T01:33:38;-6.55;118.99
70867;HTU21D;58487;53.474;49.470;2023-02-01T01:36:09;-6.66;118.99
70867;HTU21D;58487;53.474;49.470;2023-02-01T01:38:39;-6.73;118.99
70867;HTU21D;58487;53.474;49.470;2023-02-01T01:41:06;-6.81;118.99
70867;HTU21D;58487;53.474;49.470;2023-02-01T01:44:05;-6.91;118.99
70867;HTU21D;58487;53.474;49.470;2023-02-01T01:46:36;-7.09;117.82
70867;HTU21D;58487;53.474;49.470;2023-02-01T01:49:13;-7.26;118.99
70867;HTU21D;58487;53.474;49.470;2023-02-01T01:51:55;-7.32;118.99
70867;HTU21D;58487;53.474;49.470;2023-02-01T01:54:28;-7.36;118.99
70867;HTU21D;58487;53.474;49.470;2023-02-01T01:57:18;-7.42;118.99
70867;HTU21D;58487;53.474;49.470;2023-02-01T01:59:50;-7.45;118.99
70867;HTU21D;58487;53.474;49.470;2023-02-01T02:02:19;-7.65;118.99
70867;HTU21D;58487;53.474;49.470;2023-02-01T02:04:46;-7.70;118.99
70867;HTU21D;58487;53.474;49.470;2023-02-01T02:07:17;-7.61;118.99
70867;HTU21D;58487;53.474;49.470;2023-02-01T02:09:44;-7.68;117.14
70867;HTU21D;58487;53.474;49.470;2023-02-01T02:12:10;-7.62;117.09
70867;HTU21D;58487;53.474;49.470;2023-02-01T02:14:37;-7.66;118.99
70867;HTU21D;58487;53.474;49.470;2023-02-01T02:39:11;-7.76;118.99
70867;HTU21D;58487;53.474;49.470;2023-02-01T02:50:32;-7.99;118.99
70867;HTU21D;58487;53.474;49.470;2023-02-01T02:53:29;-8.10;118.99
70867;HTU21D;58487;53.474;49.470;2023-02-01T02:56:15;-8.06;118.99
70867;HTU21D;58487;53.474;49.470;2023-02-01T02:59:02;-8.16;113.87
70867;HTU21D;58487;53.474;49.470;2023-02-01T03:01:48;-8.10;118.99
70867;HTU21D;58487;53.474;49.470;2023-02-01T03:04:33;-8.23;118.99
70867;HTU21D;58487;53.474;49.470;2023-02-01T03:10:17;-8.51;118.99
70867;HTU21D;58487;53.474;49.470;2023-02-01T03:12:49;-8.54;118.99
70867;HTU21D;58487;53.474;49.470;2023-02-01T03:15:42;-8.48;118.99
70867;HTU21D;58487;53.474;49.470;2023-02-01T03:18:24;-8.50;118.99
70867;HTU21D;58487;53.474;49.470;2023-02-01T03:20:53;-8.44;118.99
70867;HTU21D;58487;53.474;49.470;2023-02-01T03:23:24;-8.43;111.20
70867;HTU21D;58487;53.474;49.470;2023-02-01T03:25:53;-8.49;117.34
70867;HTU21D;58487;53.474;49.470;2023-02-01T03:28:23;-8.24;98.93
70867;HTU21D;58487;53.474;49.470;2023-02-01T03:30:51;-8.67;118.99
70867;HTU21D;58487;53.474;49.470;2023-02-01T03:33:21;-8.57;118.99
70867;HTU21D;58487;53.474;49.470;2023-02-01T03:36:35;-8.63;118.99
70867;HTU21D;58487;53.474;49.470;2023-02-01T03:42:02;-8.52;115.92
70867;HTU21D;58487;53.474;49.470;2023-02-01T03:44:16;-8.62;118.99
70867;HTU21D;58487;53.474;49.470;2023-02-01T03:46:59;-8.30;118.99
70867;HTU21D;58487;53.474;49.470;2023-02-01T03:49:37;-8.30;118.99
70867;HTU21D;58487;53.474;49.470;2023-02-01T03:52:06;-8.36;118.99
70867;HTU21D;58487;53.474;49.470;2023-02-01T03:54:35;-8.57;118.99
70867;HTU21D;58487;53.474;49.470;2023-02-01T03:57:07;-8.60;115.75
70867;HTU21D;58487;53.474;49.470;2023-02-01T03:59:40;-8.83;118.99
70867;HTU21D;58487;53.474;49.470;2023-02-01T04:02:07;-8.83;118.99
70867;HTU21D;58487;53.474;49.470;2023-02-01T04:04:34;-8.73;115.24
70867;HTU21D;58487;53.474;49.470;2023-02-01T04:07:01;-8.69;118.21
70867;HTU21D;58487;53.474;49.470;2023-02-01T04:09:27;-8.64;117.73
70867;HTU21D;58487;53.474;49.470;2023-02-01T04:11:53;-8.63;110.56
70867;HTU21D;58487;53.474;49.470;2023-02-01T04:14:20;-8.44;118.99
70867;HTU21D;58487;53.474;49.470;2023-02-01T04:16:46;-8.36;118.99
70867;HTU21D;58487;53.474;49.470;2023-02-01T04:19:12;-8.29;118.99
70867;HTU21D;58487;53.474;49.470;2023-02-01T04:21:39;-8.16;118.99
70867;HTU21D;58487;53.474;49.470;2023-02-01T04:24:05;-8.39;118.99
70867;HTU21D;58487;53.474;49.470;2023-02-01T04:26:32;-8.34;118.99
70867;HTU21D;58487;53.474;49.470;2023-02-01T04:28:58;-8.28;118.99
70867;HTU21D;58487;53.474;49.470;2023-02-01T04:31:24;-8.50;118.99
70867;HTU21D;58487;53.474;49.470;2023-02-01T04:33:54;-8.27;118.99
70867;HTU21D;58487;53.474;49.470;2023-02-01T04:36:21;-8.13;118.99
70867;HTU21D;58487;53.474;49.470;2023-02-01T04:38:51;-7.99;118.99
70867;HTU21D;58487;53.474;49.470;2023-02-01T04:41:19;-8.26;118.99
70867;HTU21D;58487;53.474;49.470;2023-02-01T04:43:49;-8.08;118.99
70867;HTU21D;58487;53.474;49.470;2023-02-01T04:46:16;-8.20;118.99
70867;HTU21D;58487;53.474;49.470;2023-02-01T04:48:42;-8.45;118.99
70867;HTU21D;58487;53.474;49.470;2023-02-01T04:51:09;-8.44;118.99
70867;HTU21D;58487;53.474;49.470;2023-02-01T04:53:35;-8.40;118.99
70867;HTU21D;58487;53.474;49.470;2023-02-01T04:56:02;-8.25;118.99
70867;HTU21D;58487;53.474;49.470;2023-02-01T04:58:28;-8.24;118.99
70867;HTU21D;58487;53.474;49.470;2023-02-01T05:00:55;-8.28;118.99
70867;HTU21D;58487;53.474;49.470;2023-02-01T05:03:21;-8.14;118.99
70867;HTU21D;58487;53.474;49.470;2023-02-01T05:05:48;-7.93;118.99
70867;HTU21D;58487;53.474;49.470;2023-02-01T05:08:15;-8.04;118.99
70867;HTU21D;58487;53.474;49.470;2023-02-01T05:10:41;-8.09;118.99
70867;HTU21D;58487;53.474;49.470;2023-02-01T05:13:09;-8.03;118.99
70867;HTU21D;58487;53.474;49.470;2023-02-01T05:15:54;-7.82;118.99
70867;HTU21D;58487;53.474;49.470;2023-02-01T05:18:20;-7.99;118.99
70867;HTU21D;58487;53.474;49.470;2023-02-01T05:20:46;-8.11;118.99
70867;HTU21D;58487;53.474;49.470;2023-02-01T05:23:13;-8.26;118.99
70867;HTU21D;58487;53.474;49.470;2023-02-01T05:25:39;-8.40;118.99
70867;HTU21D;58487;53.474;49.470;2023-02-01T05:28:05;-8.44;118.99
70867;HTU21D;58487;53.474;49.470;2023-02-01T05:30:32;-8.33;118.99
70867;HTU21D;58487;53.474;49.470;2023-02-01T05:33:01;-8.35;118.99
70867;HTU21D;58487;53.474;49.470;2023-02-01T05:35:28;-8.14;118.99
70867;HTU21D;58487;53.474;49.470;2023-02-01T05:37:54;-7.98;118.99
70867;HTU21D;58487;53.474;49.470;2023-02-01T05:40:21;-8.00;118.99
70867;HTU21D;58487;53.474;49.470;2023-02-01T05:42:47;-7.84;118.99
70867;HTU21D;58487;53.474;49.470;2023-02-01T05:45:14;-7.90;118.99
70867;HTU21D;58487;53.474;49.470;2023-02-01T05:47:40;-7.85;118.99
70867;HTU21D;58487;53.474;49.470;2023-02-01T05:50:07;-7.94;118.99
70867;HTU21D;58487;53.474;49.470;2023-02-01T05:52:33;-7.87;118.99
70867;HTU21D;58487;53.474;49.470;2023-02-01T05:54:59;-7.83;118.99
70867;HTU21D;58487;53.474;49.470;2023-02-01T05:57:25;-7.79;118.99
70867;HTU21D;58487;53.474;49.470;2023-02-01T05:59:52;-7.79;118.99
70867;HTU21D;58487;53.474;49.470;2023-02-01T06:02:18;-7.94;118.99
70867;HTU21D;58487;53.474;49.470;2023-02-01T06:04:44;-7.90;118.99
70867;HTU21D;58487;53.474;49.470;2023-02-01T06:07:11;-7.84;118.99
70867;HTU21D;58487;53.474;49.470;2023-02-01T06:09:37;-7.82;118.99
70867;HTU21D;58487;53.474;49.470;2023-02-01T06:12:04;-7.84;118.99
70867;HTU21D;58487;53.474;49.470;2023-02-01T06:14:30;-7.70;118.99
70867;HTU21D;58487;53.474;49.470;2023-02-01T06:16:57;-7.77;118.99
70867;HTU21D;58487;53.474;49.470;2023-02-01T06:19:23;-7.60;118.99
70867;HTU21D;58487;53.474;49.470;2023-02-01T06:21:49;-7.75;118.99
70867;HTU21D;58487;53.474;49.470;2023-02-01T06:24:16;-7.85;118.99
70867;HTU21D;58487;53.474;49.470;2023-02-01T06:26:42;-7.86;118.99
70867;HTU21D;58487;53.474;49.470;2023-02-01T06:29:12;-7.55;118.99
70867;HTU21D;58487;53.474;49.470;2023-02-01T06:31:38;-7.40;118.99
70867;HTU21D;58487;53.474;49.470;2023-02-01T06:34:05;-7.37;118.99
70867;HTU21D;58487;53.474;49.470;2023-02-01T06:36:32;-7.16;118.99
70867;HTU21D;58487;53.474;49.470;2023-02-01T06:38:58;-7.20;118.99
70867;HTU21D;58487;53.474;49.470;2023-02-01T06:41:26;-7.23;118.99
70867;HTU21D;58487;53.474;49.470;2023-02-01T06:43:52;-7.19;118.99
70867;HTU21D;58487;53.474;49.470;2023-02-01T06:46:19;-6.96;118.99
70867;HTU21D;58487;53.474;49.470;2023-02-01T06:48:45;-6.86;118.99
70867;HTU21D;58487;53.474;49.470;2023-02-01T06:51:23;-6.86;118.99
70867;HTU21D;58487;53.474;49.470;2023-02-01T06:53:50;-6.79;118.99
70867;HTU21D;58487;53.474;49.470;2023-02-01T06:56:16;-6.52;118.99
70867;HTU21D;58487;53.474;49.470;2023-02-01T06:58:42;-6.51;118.99
70867;HTU21D;58487;53.474;49.470;2023-02-01T07:01:10;-6.39;118.99
70867;HTU21D;58487;53.474;49.470;2023-02-01T07:03:37;-6.33;118.99
70867;HTU21D;58487;53.474;49.470;2023-02-01T07:06:04;-6.11;118.99
70867;HTU21D;58487;53.474;49.470;2023-02-01T07:08:32;-5.98;118.99
70867;HTU21D;58487;53.474;49.470;2023-02-01T07:11:06;-5.97;118.99
70867;HTU21D;58487;53.474;49.470;2023-02-01T07:13:33;-6.03;118.99
70867;HTU21D;58487;53.474;49.470;2023-02-01T07:16:04;-6.05;118.99
70867;HTU21D;58487;53.474;49.470;2023-02-01T07:18:31;-6.05;118.99
70867;HTU21D;58487;53.474;49.470;2023-02-01T07:20:59;-5.87;118.99
70867;HTU21D;58487;53.474;49.470;2023-02-01T07:23:26;-5.41;118.99
70867;HTU21D;58487;53.474;49.470;2023-02-01T07:25:58;-5.26;118.99
70867;HTU21D;58487;53.474;49.470;2023-02-01T07:28:25;-5.04;115.54
70867;HTU21D;58487;53.474;49.470;2023-02-01T07:30:52;-5.00;118.99
70867;HTU21D;58487;53.474;49.470;2023-02-01T07:33:23;-4.91;118.99
70867;HTU21D;58487;53.474;49.470;2023-02-01T07:35:50;-4.76;118.99
70867;HTU21D;58487;53.474;49.470;2023-02-01T07:38:17;-4.63;118.99
70867;HTU21D;58487;53.474;49.470;2023-02-01T07:40:43;-4.64;118.99
70867;HTU21D;58487;53.474;49.470;2023-02-01T07:43:10;-4.46;118.99
70867;HTU21D;58487;53.474;49.470;2023-02-01T07:45:36;-4.57;118.99
70867;HTU21D;58487;53.474;49.470;2023-02-01T07:48:03;-4.56;118.99
70867;HTU21D;58487;53.474;49.470;2023-02-01T07:50:30;-4.51;118.99
70867;HTU21D;58487;53.474;49.470;2023-02-01T07:53:01;-4.50;118.99
70867;HTU21D;58487;53.474;49.470;2023-02-01T07:55:27;-4.46;118.99
70867;HTU21D;58487;53.474;49.470;2023-02-01T07:57:57;-4.41;118.99
70867;HTU21D;58487;53.474;49.470;2023-02-01T08:00:25;-4.30;118.99
70867;HTU21D;58487;53.474;49.470;2023-02-01T08:03:10;-4.22;118.99
70867;HTU21D;58487;53.474;49.470;2023-02-01T08:05:36;-4.24;118.99
70867;HTU21D;58487;53.474;49.470;2023-02-01T08:08:02;-4.25;118.99
70867;HTU21D;58487;53.474;49.470;2023-02-01T08:10:29;-4.39;118.99
70867;HTU21D;58487;53.474;49.470;2023-02-01T08:12:59;-4.29;118.99
70867;HTU21D;58487;53.474;49.470;2023-02-01T08:15:27;-4.22;118.99
70867;HTU21D;58487;53.474;49.470;2023-02-01T08:17:53;-4.27;118.99
70867;HTU21D;58487;53.474;49.470;2023-02-01T08:20:24;-4.11;118.99
70867;HTU21D;58487;53.474;49.470;2023-02-01T08:22:51;-4.19;118.99
70867;HTU21D;58487;53.474;49.470;2023-02-01T08:25:18;-4.14;118.99
70867;HTU21D;58487;53.474;49.470;2023-02-01T08:27:44;-4.20;118.99
70867;HTU21D;58487;53.474;49.470;2023-02-01T08:30:11;-4.15;118.99
70867;HTU21D;58487;53.474;49.470;2023-02-01T08:32:38;-4.00;118.99
70867;HTU21D;58487;53.474;49.470;2023-02-01T08:35:04;-3.74;118.99
70867;HTU21D;58487;53.474;49.470;2023-02-01T08:37:31;-3.72;118.99
70867;HTU21D;58487;53.474;49.470;2023-02-01T08:39:57;-3.76;118.99
70867;HTU21D;58487;53.474;49.470;2023-02-01T08:42:24;-3.84;118.99
70867;HTU21D;58487;53.474;49.470;2023-02-01T08:45:25;-3.89;118.99
70867;HTU21D;58487;53.474;49.470;2023-02-01T08:47:55;-3.90;118.99
70867;HTU21D;58487;53.474;49.470;2023-02-01T08:50:21;-3.94;118.99
70867;HTU21D;58487;53.474;49.470;2023-02-01T08:52:48;-3.71;118.99
70867;HTU21D;58487;53.474;49.470;2023-02-01T08:55:15;-3.77;118.99
70867;HTU21D;58487;53.474;49.470;2023-02-01T08:57:42;-3.66;118.99
70867;HTU21D;58487;53.474;49.470;2023-02-01T09:00:12;-3.56;118.99
70867;HTU21D;58487;53.474;49.470;2023-02-01T09:02:39;-3.47;118.99
70867;HTU21D;58487;53.474;49.470;2023-02-01T09:05:05;-3.48;118.99
70867;HTU21D;58487;53.474;49.470;2023-02-01T09:07:33;-3.34;118.99
70867;HTU21D;58487;53.474;49.470;2023-02-01T09:09:59;-3.21;118.99
70867;HTU21D;58487;53.474;49.470;2023-02-01T09:12:30;-3.06;118.99
70867;HTU21D;58487;53.474;49.470;2023-02-01T09:14:57;-3.07;118.99
70867;HTU21D;58487;53.474;49.470;2023-02-01T09:17:26;-3.00;118.99
70867;HTU21D;58487;53.474;49.470;2023-02-01T09:19:53;-3.03;118.99
70867;HTU21D;58487;53.474;49.470;2023-02-01T09:22:19;-2.95;118.99
70867;HTU21D;58487;53.474;49.470;2023-02-01T09:24:46;-2.96;118.99
70867;HTU21D;58487;53.474;49.470;2023-02-01T09:27:13;-2.96;118.99
70867;HTU21D;58487;53.474;49.470;2023-02-01T09:29:40;-2.87;118.99
70867;HTU21D;58487;53.474;49.470;2023-02-01T09:32:06;-2.75;118.99
70867;HTU21D;58487;53.474;49.470;2023-02-01T09:34:33;-2.71;118.99
70867;HTU21D;58487;53.474;49.470;2023-02-01T09:37:00;-2.62;118.99
70867;HTU21D;58487;53.474;49.470;2023-02-01T09:39:26;-2.80;118.99
70867;HTU21D;58487;53.474;49.470;2023-02-01T09:47:29;-2.52;118.99
70867;HTU21D;58487;53.474;49.470;2023-02-01T09:50:36;-2.57;118.99
70867;HTU21D;58487;53.474;49.470;2023-02-01T09:53:18;-2.31;118.99
70867;HTU21D;58487;53.474;49.470;2023-02-01T09:55:53;-2.27;118.99
70867;HTU21D;58487;53.474;49.470;2023-02-01T09:58:42;-2.01;118.99
70867;HTU21D;58487;53.474;49.470;2023-02-01T10:01:28;-1.92;118.99
70867;HTU21D;58487;53.474;49.470;2023-02-01T10:04:05;-1.92;118.99
70867;HTU21D;58487;53.474;49.470;2023-02-01T10:15:24;-2.49;118.99
70867;HTU21D;58487;53.474;49.470;2023-02-01T10:21:51;-1.93;118.99
70867;HTU21D;58487;53.474;49.470;2023-02-01T10:26:33;-0.87;118.99
70867;HTU21D;58487;53.474;49.470;2023-02-01T10:29:02;-0.32;118.99
70867;HTU21D;58487;53.474;49.470;2023-02-01T10:31:31;-0.41;118.99
70867;HTU21D;58487;53.474;49.470;2023-02-01T10:34:21;-0.32;118.99
70867;HTU21D;58487;53.474;49.470;2023-02-01T10:37:01;0.45;118.99
70867;HTU21D;58487;53.474;49.470;2023-02-01T10:39:28;0.84;115.84
70867;HTU21D;58487;53.474;49.470;2023-02-01T10:41:55;1.34;118.99
70867;HTU21D;58487;53.474;49.470;2023-02-01T10:44:25;1.41;118.99
70867;HTU21D;58487;53.474;49.470;2023-02-01T10:46:52;1.39;118.99
70867;HTU21D;58487;53.474;49.470;2023-02-01T10:49:37;1.07;118.99
70867;HTU21D;58487;53.474;49.470;2023-02-01T10:53:11;0.60;118.99
70867;HTU21D;58487;53.474;49.470;2023-02-01T10:55:38;0.65;118.99
70867;HTU21D;58487;53.474;49.470;2023-02-01T10:58:07;0.64;118.99
70867;HTU21D;58487;53.474;49.470;2023-02-01T11:00:53;0.34;118.99
70867;HTU21D;58487;53.474;49.470;2023-02-01T11:03:33;-0.32;118.99
70867;HTU21D;58487;53.474;49.470;2023-02-01T11:06:04;-0.68;118.99
70867;HTU21D;58487;53.474;49.470;2023-02-01T11:08:51;-0.77;118.99
70867;HTU21D;58487;53.474;49.470;2023-02-01T11:11:19;-0.72;118.99
70867;HTU21D;58487;53.474;49.470;2023-02-01T11:13:52;-0.55;118.99
70867;HTU21D;58487;53.474;49.470;2023-02-01T11:16:19;-0.56;118.99
70867;HTU21D;58487;53.474;49.470;2023-02-01T11:18:53;-0.58;118.99
70867;HTU21D;58487;53.474;49.470;2023-02-01T11:21:20;-0.69;118.99
70867;HTU21D;58487;53.474;49.470;2023-02-01T11:23:47;-0.73;118.99
70867;HTU21D;58487;53.474;49.470;2023-02-01T11:26:24;-0.68;118.99
70867;HTU21D;58487;53.474;49.470;2023-02-01T11:29:09;-0.96;118.99
70867;HTU21D;58487;53.474;49.470;2023-02-01T11:31:37;-1.09;118.99
70867;HTU21D;58487;53.474;49.470;2023-02-01T11:34:36;-1.39;118.99
70867;HTU21D;58487;53.474;49.470;2023-02-01T11:37:03;-1.32;118.99
70867;HTU21D;58487;53.474;49.470;2023-02-01T11:39:33;-1.32;118.99
70867;HTU21D;58487;53.474;49.470;2023-02-01T11:44:47;-1.73;118.99
70867;HTU21D;58487;53.474;49.470;2023-02-01T11:49:54;-2.20;118.99
70867;HTU21D;58487;53.474;49.470;2023-02-01T11:55:18;-2.39;118.99
70867;HTU21D;58487;53.474;49.470;2023-02-01T12:17:27;-1.88;118.99
70867;HTU21D;58487;53.474;49.470;2023-02-01T12:20:37;-1.60;118.99
70867;HTU21D;58487;53.474;49.470;2023-02-01T12:34:27;-2.01;118.99
70867;HTU21D;58487;53.474;49.470;2023-02-01T12:37:27;-2.08;118.99
70867;HTU21D;58487;53.474;49.470;2023-02-01T12:42:40;-1.47;118.99
70867;HTU21D;58487;53.474;49.470;2023-02-01T12:50:42;-1.08;118.99
70867;HTU21D;58487;53.474;49.470;2023-02-01T12:53:17;-1.03;118.99
70867;HTU21D;58487;53.474;49.470;2023-02-01T12:55:53;-1.10;118.89
70867;HTU21D;58487;53.474;49.470;2023-02-01T12:58:29;-1.13;110.96
70867;HTU21D;58487;53.474;49.470;2023-02-01T13:01:03;-1.57;118.99
70867;HTU21D;58487;53.474;49.470;2023-02-01T13:07:03;-2.03;118.99
70867;HTU21D;58487;53.474;49.470;2023-02-01T13:09:53;-2.63;118.99
70867;HTU21D;58487;53.474;49.470;2023-02-01T13:12:32;-2.37;118.99
70867;HTU21D;58487;53.474;49.470;2023-02-01T13:15:40;-2.47;118.99
70867;HTU21D;58487;53.474;49.470;2023-02-01T13:18:14;-2.83;112.65
70867;HTU21D;58487;53.474;49.470;2023-02-01T13:21:25;-2.93;118.99
70867;HTU21D;58487;53.474;49.470;2023-02-01T13:23:46;-3.31;118.99
70867;HTU21D;58487;53.474;49.470;2023-02-01T13:26:14;-3.22;118.99
70867;HTU21D;58487;53.474;49.470;2023-02-01T13:28:47;-2.88;118.99
70867;HTU21D;58487;53.474;49.470;2023-02-01T13:31:31;-3.11;118.99
70867;HTU21D;58487;53.474;49.470;2023-02-01T13:34:16;-2.98;118.99
70867;HTU21D;58487;53.474;49.470;2023-02-01T13:39:52;-3.01;118.99
70867;HTU21D;58487;53.474;49.470;2023-02-01T13:42:58;-3.43;118.99
70867;HTU21D;58487;53.474;49.470;2023-02-01T13:45:34;-3.62;118.99
70867;HTU21D;58487;53.474;49.470;2023-02-01T13:48:04;-3.72;113.35
70867;HTU21D;58487;53.474;49.470;2023-02-01T13:50:37;-3.56;118.99
70867;HTU21D;58487;53.474;49.470;2023-02-01T13:55:41;-3.55;118.99
70867;HTU21D;58487;53.474;49.470;2023-02-01T13:58:21;-3.26;118.99
70867;HTU21D;58487;53.474;49.470;2023-02-01T14:00:49;-3.28;118.99
70867;HTU21D;58487;53.474;49.470;2023-02-01T14:03:20;-3.63;118.99
70867;HTU21D;58487;53.474;49.470;2023-02-01T14:08:21;-4.15;116.18
70867;HTU21D;58487;53.474;49.470;2023-02-01T14:10:50;-4.20;117.04
70867;HTU21D;58487;53.474;49.470;2023-02-01T14:21:20;-4.91;118.99
70867;HTU21D;58487;53.474;49.470;2023-02-01T14:26:25;-4.81;118.99
70867;HTU21D;58487;53.474;49.470;2023-02-01T14:47:53;-5.03;118.99
70867;HTU21D;58487;53.474;49.470;2023-02-01T14:56:07;-4.67;118.99
70867;HTU21D;58487;53.474;49.470;2023-02-01T14:58:56;-4.75;118.99
70867;HTU21D;58487;53.474;49.470;2023-02-01T15:01:30;-4.60;118.99
70867;HTU21D;58487;53.474;49.470;2023-02-01T15:04:10;-4.46;118.99
70867;HTU21D;58487;53.474;49.470;2023-02-01T15:14:29;-4.76;118.99
70867;HTU21D;58487;53.474;49.470;2023-02-01T15:16:56;-4.63;118.99
70867;HTU21D;58487;53.474;49.470;2023-02-01T15:19:24;-4.83;118.99
70867;HTU21D;58487;53.474;49.470;2023-02-01T15:21:53;-4.66;118.99
70867;HTU21D;58487;53.474;49.470;2023-02-01T15:24:30;-5.07;118.99
70867;HTU21D;58487;53.474;49.470;2023-02-01T15:27:03;-5.23;118.99
70867;HTU21D;58487;53.474;49.470;2023-02-01T15:29:32;-5.34;118.99
70867;HTU21D;58487;53.474;49.470;2023-02-01T15:32:00;-5.44;118.99
70867;HTU21D;58487;53.474;49.470;2023-02-01T15:34:48;-5.67;118.99
70867;HTU21D;58487;53.474;49.470;2023-02-01T15:37:16;-5.41;118.99
70867;HTU21D;58487;53.474;49.470;2023-02-01T15:40:04;-5.58;118.99
70867;HTU21D;58487;53.474;49.470;2023-02-01T15:42:33;-5.60;118.99
70867;HTU21D;58487;53.474;49.470;2023-02-01T15:45:00;-5.47;118.99
70867;HTU21D;58487;53.474;49.470;2023-02-01T15:47:28;-5.24;118.99
70867;HTU21D;58487;53.474;49.470;2023-02-01T15:50:01;-5.13;118.99
70867;HTU21D;58487;53.474;49.470;2023-02-01T15:52:36;-5.11;118.99
70867;HTU21D;58487;53.474;49.470;2023-02-01T15:55:21;-5.11;118.99
70867;HTU21D;58487;53.474;49.470;2023-02-01T15:57:49;-5.23;118.99
70867;HTU21D;58487;53.474;49.470;2023-02-01T16:00:23;-5.32;118.99
70867;HTU21D;58487;53.474;49.470;2023-02-01T16:05:39;-5.32;115.10
70867;HTU21D;58487;53.474;49.470;2023-02-01T16:08:16;-5.33;116.12
70867;HTU21D;58487;53.474;49.470;2023-02-01T16:10:46;-5.40;118.99
70867;HTU21D;58487;53.474;49.470;2023-02-01T16:13:14;-5.43;118.99
70867;HTU21D;58487;53.474;49.470;2023-02-01T16:15:40;-5.52;118.99
70867;HTU21D;58487;53.474;49.470;2023-02-01T16:18:07;-5.91;118.99
70867;HTU21D;58487;53.474;49.470;2023-02-01T16:20:35;-6.01;118.99
70867;HTU21D;58487;53.474;49.470;2023-02-01T16:23:02;-5.79;118.99
70867;HTU21D;58487;53.474;49.470;2023-02-01T16:25:29;-5.98;118.99
70867;HTU21D;58487;53.474;49.470;2023-02-01T16:27:56;-6.02;115.25
70867;HTU21D;58487;53.474;49.470;2023-02-01T16:30:22;-6.02;118.99
70867;HTU21D;58487;53.474;49.470;2023-02-01T16:32:57;-6.01;118.99
70867;HTU21D;58487;53.474;49.470;2023-02-01T16:35:30;-6.13;118.99
70867;HTU21D;58487;53.474;49.470;2023-02-01T16:38:11;-6.04;118.99
70867;HTU21D;58487;53.474;49.470;2023-02-01T16:40:39;-5.91;118.99
70867;HTU21D;58487;53.474;49.470;2023-02-01T16:43:23;-6.07;118.99
70867;HTU21D;58487;53.474;49.470;2023-02-01T16:45:52;-5.75;118.99
70867;HTU21D;58487;53.474;49.470;2023-02-01T16:48:35;-5.73;118.99
70867;HTU21D;58487;53.474;49.470;2023-02-01T16:51:10;-5.59;111.09
70867;HTU21D;58487;53.474;49.470;2023-02-01T16:53:37;-5.54;118.99
70867;HTU21D;58487;53.474;49.470;2023-02-01T16:56:30;-5.76;118.99
70867;HTU21D;58487;53.474;49.470;2023-02-01T16:58:58;-5.73;118.99
70867;HTU21D;58487;53.474;49.470;2023-02-01T17:01:25;-5.96;118.99
70867;HTU21D;58487;53.474;49.470;2023-02-01T17:03:51;-6.15;118.99
70867;HTU21D;58487;53.474;49.470;2023-02-01T17:06:20;-6.20;118.99
70867;HTU21D;58487;53.474;49.470;2023-02-01T17:08:54;-6.14;118.99
70867;HTU21D;58487;53.474;49.470;2023-02-01T17:11:22;-6.28;118.99
70867;HTU21D;58487;53.474;49.470;2023-02-01T17:13:49;-6.32;118.99
70867;HTU21D;58487;53.474;49.470;2023-02-01T17:18:53;-6.29;118.99
70867;HTU21D;58487;53.474;49.470;2023-02-01T17:21:21;-6.37;118.99
70867;HTU21D;58487;53.474;49.470;2023-02-01T17:23:47;-6.29;118.99
70867;HTU21D;58487;53.474;49.470;2023-02-01T17:26:14;-6.44;118.99
70867;HTU21D;58487;53.474;49.470;2023-02-01T17:28:40;-6.42;118.99
70867;HTU21D;58487;53.474;49.470;2023-02-01T17:31:09;-6.37;118.99
70867;HTU21D;58487;53.474;49.470;2023-02-01T17:33:36;-6.47;118.99
70867;HTU21D;58487;53.474;49.470;2023-02-01T17:36:04;-6.53;118.99
70867;HTU21D;58487;53.474;49.470;2023-02-01T17:38:32;-6.66;118.99
70867;HTU21D;58487;53.474;49.470;2023-02-01T17:40:59;-6.46;118.99
70867;HTU21D;58487;53.474;49.470;2023-02-01T17:43:25;-6.43;118.99
70867;HTU21D;58487;53.474;49.470;2023-02-01T17:45:57;-6.63;118.99
70867;HTU21D;58487;53.474;49.470;2023-02-01T17:48:24;-6.52;118.99
70867;HTU21D;58487;53.474;49.470;2023-02-01T17:50:51;-6.56;118.99
70867;HTU21D;58487;53.474;49.470;2023-02-01T17:53:28;-6.77;118.99
70867;HTU21D;58487;53.474;49.470;2023-02-01T17:55:58;-6.82;118.99